Time;durP1;ratioP1;P1;durP2;ratioP2;P2;SDS_P1;SDS_P2;PMS_P1;PMS_P2;Temp;Humidity;BMP_temperature;BMP_pressure;BME280_temperature;BME280_humidity;BME280_pressure;Samples;Min_cycle;Max_cycle;Signal;HPM_P1;HPM_P2
2023/07/11 00:00:06;;;;;;;4.85;3.10;;;20.50;99.90;;;;;;5020918;28;20225;-74
2023/07/11 00:02:56;;;;;;;4.10;2.70;;;20.50;99.90;;;;;;5019793;28;20251;-74
2023/07/11 00:05:58;;;;;;;6.95;3.00;;;20.40;99.90;;;;;;4998989;28;20222;-73
2023/07/11 00:08:47;;;;;;;3.40;2.60;;;20.40;99.90;;;;;;5004948;28;20229;-73
2023/07/11 00:11:37;;;;;;;4.22;2.60;;;20.30;99.90;;;;;;5026543;28;20226;-71
2023/07/11 00:14:26;;;;;;;4.13;2.80;;;20.10;99.90;;;;;;5016417;28;20233;-71
2023/07/11 00:17:15;;;;;;;4.75;2.67;;;20.00;99.90;;;;;;5016286;28;20214;-73
2023/07/11 00:20:08;;;;;;;4.80;2.80;;;20.20;99.90;;;;;;5010086;28;20335;-73
2023/07/11 00:22:56;;;;;;;3.60;2.75;;;20.30;99.90;;;;;;5007999;28;20225;-73
2023/07/11 00:25:45;;;;;;;6.55;3.03;;;20.40;99.90;;;;;;4995291;28;20218;-73
2023/07/11 00:28:34;;;;;;;6.53;3.20;;;20.40;99.90;;;;;;5018466;28;20226;-72
2023/07/11 00:31:24;;;;;;;6.97;3.13;;;20.30;99.90;;;;;;5005287;28;20327;-74
2023/07/11 00:34:13;;;;;;;5.00;3.03;;;20.10;99.90;;;;;;5002822;28;20245;-73
2023/07/11 00:37:04;;;;;;;7.65;3.55;;;20.10;99.90;;;;;;4998014;28;20851;-74
2023/07/11 00:39:53;;;;;;;7.03;4.13;;;19.80;99.90;;;;;;4994760;28;20240;-75
2023/07/11 00:42:44;;;;;;;9.75;3.60;;;19.70;99.90;;;;;;5005631;28;20605;-74
2023/07/11 00:46:06;;;;;;;4.32;3.00;;;19.60;99.90;;;;;;5006236;28;20321;-73
2023/07/11 00:48:58;;;;;;;6.15;2.95;;;19.50;99.90;;;;;;5007555;28;20241;-73
2023/07/11 00:51:51;;;;;;;5.45;3.15;;;19.40;99.90;;;;;;5011866;28;20233;-72
2023/07/11 00:54:45;;;;;;;5.60;3.13;;;19.50;99.90;;;;;;5019082;28;20312;-73
2023/07/11 00:57:39;;;;;;;5.97;3.47;;;19.30;99.90;;;;;;5012503;28;20288;-73
2023/07/11 01:00:28;;;;;;;5.50;2.97;;;19.00;99.90;;;;;;5003158;28;20228;-75
2023/07/11 01:03:17;;;;;;;8.05;3.58;;;18.60;99.90;;;;;;5031444;28;20720;-74
2023/07/11 01:06:11;;;;;;;5.40;3.42;;;18.80;99.90;;;;;;5007870;28;20233;-75
2023/07/11 01:09:04;;;;;;;5.40;3.15;;;18.50;99.90;;;;;;5028052;28;20213;-75
2023/07/11 01:11:58;;;;;;;7.88;3.55;;;18.50;99.90;;;;;;5010557;28;20598;-76
2023/07/11 01:14:49;;;;;;;5.72;3.13;;;18.60;99.90;;;;;;5002698;28;20990;-76
2023/07/11 01:17:38;;;;;;;4.22;3.35;;;18.60;99.90;;;;;;4998978;28;20704;-75
2023/07/11 01:20:27;;;;;;;5.78;3.20;;;18.60;99.90;;;;;;5015856;28;20772;-76
2023/07/11 01:23:17;;;;;;;5.70;3.85;;;18.60;99.90;;;;;;5015907;28;20271;-75
2023/07/11 01:26:08;;;;;;;9.35;3.55;;;18.70;99.90;;;;;;5018994;28;20256;-75
2023/07/11 01:28:57;;;;;;;5.20;3.30;;;18.60;99.90;;;;;;5009468;28;20217;-75
2023/07/11 01:31:47;;;;;;;6.32;3.47;;;18.40;99.90;;;;;;5018413;28;20233;-75
2023/07/11 01:34:37;;;;;;;6.15;3.53;;;18.40;99.90;;;;;;5021730;28;20221;-75
2023/07/11 01:37:27;;;;;;;5.63;3.08;;;18.40;99.90;;;;;;5028044;28;20222;-75
2023/07/11 01:40:18;;;;;;;6.35;3.22;;;18.20;99.90;;;;;;5012842;28;20224;-74
2023/07/11 01:43:07;;;;;;;4.55;3.78;;;18.30;99.90;;;;;;5001327;28;20284;-76
2023/07/11 01:45:56;;;;;;;3.80;3.00;;;18.10;99.90;;;;;;5006631;28;20295;-75
2023/07/11 01:48:47;;;;;;;7.55;3.17;;;18.10;99.90;;;;;;5014521;28;20221;-75
2023/07/11 01:51:39;;;;;;;4.75;3.05;;;18.00;99.90;;;;;;5026933;28;20723;-75
2023/07/11 01:54:28;;;;;;;5.95;3.13;;;18.30;99.90;;;;;;5019216;28;20232;-74
2023/07/11 01:57:19;;;;;;;7.20;3.00;;;18.20;99.90;;;;;;5020814;28;20222;-74
2023/07/11 02:00:09;;;;;;;3.60;2.90;;;18.10;99.90;;;;;;5016063;28;20245;-75
2023/07/11 02:02:58;;;;;;;5.65;3.10;;;18.20;99.90;;;;;;5019142;28;20785;-74
2023/07/11 02:05:47;;;;;;;4.80;2.97;;;18.30;99.90;;;;;;5012228;28;20590;-74
2023/07/11 02:08:37;;;;;;;5.43;2.90;;;18.20;99.90;;;;;;5017214;28;20221;-72
2023/07/11 02:11:27;;;;;;;5.80;2.95;;;18.30;99.90;;;;;;5033008;28;20304;-72
2023/07/11 02:14:19;;;;;;;5.95;2.92;;;18.30;99.90;;;;;;5031057;28;20596;-71
2023/07/11 02:17:09;;;;;;;5.32;2.75;;;18.40;99.90;;;;;;5023440;28;20267;-72
2023/07/11 02:19:58;;;;;;;3.42;2.70;;;18.30;99.90;;;;;;5022657;28;20304;-72
2023/07/11 02:22:47;;;;;;;4.95;3.00;;;18.30;99.90;;;;;;5013668;28;20720;-74
2023/07/11 02:25:36;;;;;;;4.75;2.90;;;18.20;99.90;;;;;;5017777;28;20624;-74
2023/07/11 02:28:25;;;;;;;4.47;2.70;;;18.20;99.90;;;;;;5018163;28;20224;-74
2023/07/11 02:31:16;;;;;;;5.45;2.85;;;18.20;99.90;;;;;;5002125;28;20277;-73
2023/07/11 02:34:05;;;;;;;6.22;2.92;;;18.30;99.90;;;;;;5007092;28;20230;-74
2023/07/11 02:36:54;;;;;;;4.13;2.67;;;18.50;99.90;;;;;;5022134;28;20757;-75
2023/07/11 02:39:43;;;;;;;3.78;2.90;;;18.60;99.90;;;;;;4999572;28;20225;-73
2023/07/11 02:42:32;;;;;;;3.55;2.83;;;18.50;99.90;;;;;;5019688;28;20351;-74
2023/07/11 02:45:21;;;;;;;3.92;2.50;;;18.70;99.90;;;;;;5009146;28;20225;-74
2023/07/11 02:48:11;;;;;;;4.28;2.50;;;18.70;99.90;;;;;;4998633;28;20222;-73
2023/07/11 02:51:00;;;;;;;4.60;2.58;;;18.50;99.90;;;;;;5022114;28;20234;-74
2023/07/11 02:53:48;;;;;;;3.53;2.53;;;18.70;99.90;;;;;;5017612;28;20214;-73
2023/07/11 02:56:37;;;;;;;2.90;2.60;;;18.70;99.90;;;;;;4997822;28;20225;-73
2023/07/11 02:59:26;;;;;;;3.08;2.20;;;18.80;99.90;;;;;;5014818;28;20221;-74
2023/07/11 03:02:15;;;;;;;2.85;2.20;;;19.00;99.90;;;;;;5000088;28;20230;-74
2023/07/11 03:05:06;;;;;;;3.55;2.50;;;18.90;99.90;;;;;;5005508;28;20222;-74
2023/07/11 03:07:57;;;;;;;5.03;2.47;;;18.70;99.90;;;;;;5011229;28;20226;-75
2023/07/11 03:10:46;;;;;;;2.40;2.20;;;18.70;99.90;;;;;;5003824;28;20372;-75
2023/07/11 03:13:35;;;;;;;3.45;2.20;;;18.90;99.90;;;;;;5015949;28;20763;-76
2023/07/11 03:16:25;;;;;;;4.00;2.28;;;19.00;99.90;;;;;;5017800;28;20687;-75
2023/07/11 03:19:13;;;;;;;2.30;2.10;;;18.80;99.90;;;;;;5003383;28;21056;-74
2023/07/11 03:22:04;;;;;;;3.03;2.33;;;18.90;99.90;;;;;;5013390;28;20601;-72
2023/07/11 03:24:53;;;;;;;3.03;2.30;;;18.80;99.90;;;;;;5014937;28;20229;-74
2023/07/11 03:27:42;;;;;;;2.45;2.25;;;18.90;99.90;;;;;;5004462;28;21197;-70
2023/07/11 03:30:32;;;;;;;3.25;2.45;;;19.00;99.90;;;;;;5008663;28;20221;-72
2023/07/11 03:33:21;;;;;;;6.03;2.70;;;18.90;99.90;;;;;;5017875;28;20240;-70
2023/07/11 03:36:10;;;;;;;3.78;2.30;;;18.90;99.90;;;;;;5008903;28;20226;-69
2023/07/11 03:39:01;;;;;;;2.22;2.03;;;18.80;99.90;;;;;;5012868;28;20620;-72
2023/07/11 03:41:49;;;;;;;3.13;2.47;;;18.90;99.90;;;;;;5014247;28;20245;-71
2023/07/11 03:44:39;;;;;;;4.28;3.00;;;19.00;99.90;;;;;;5004197;28;20237;-71
2023/07/11 03:47:28;;;;;;;6.30;2.55;;;18.60;99.90;;;;;;5011213;28;20228;-72
2023/07/11 03:50:17;;;;;;;5.72;2.83;;;18.70;99.90;;;;;;5009024;28;20229;-72
2023/07/11 03:53:06;;;;;;;6.75;2.90;;;18.70;99.90;;;;;;5016572;28;20213;-71
2023/07/11 03:55:56;;;;;;;3.00;2.58;;;18.80;99.90;;;;;;5001632;28;22018;-73
2023/07/11 03:58:45;;;;;;;3.42;2.95;;;18.90;99.90;;;;;;5013979;28;20732;-73
2023/07/11 04:01:35;;;;;;;3.13;2.55;;;18.90;99.90;;;;;;5016014;28;20229;-71
2023/07/11 04:04:25;;;;;;;3.85;2.80;;;18.90;99.90;;;;;;5018847;28;20273;-72
2023/07/11 04:07:14;;;;;;;6.10;3.10;;;18.80;99.90;;;;;;5010688;28;20916;-70
2023/07/11 04:10:03;;;;;;;3.85;3.05;;;18.80;99.90;;;;;;5005241;28;20391;-71
2023/07/11 04:12:53;;;;;;;6.15;3.03;;;18.70;99.90;;;;;;5013665;28;20240;-72
2023/07/11 04:15:42;;;;;;;5.18;3.00;;;18.70;99.90;;;;;;4997854;28;20228;-71
2023/07/11 04:18:31;;;;;;;4.00;3.10;;;18.80;99.90;;;;;;5002113;28;20241;-73
2023/07/11 04:21:20;;;;;;;5.85;2.95;;;18.80;99.90;;;;;;5014702;28;20709;-72
2023/07/11 04:24:09;;;;;;;4.43;2.85;;;18.60;99.90;;;;;;5021509;28;20237;-72
2023/07/11 04:26:57;;;;;;;4.55;3.20;;;18.70;99.90;;;;;;5007056;28;20227;-73
2023/07/11 04:29:48;;;;;;;5.18;3.17;;;18.80;99.90;;;;;;4995898;28;21035;-72
2023/07/11 04:32:37;;;;;;;6.15;3.00;;;18.90;99.90;;;;;;5020921;28;20213;-72
2023/07/11 04:35:26;;;;;;;3.97;3.13;;;18.70;99.90;;;;;;5017915;28;20236;-71
2023/07/11 04:38:16;;;;;;;3.75;2.80;;;18.90;99.90;;;;;;5014210;28;20827;-72
2023/07/11 04:41:05;;;;;;;3.78;3.00;;;18.90;99.90;;;;;;5012919;28;20223;-73
2023/07/11 04:43:54;;;;;;;3.20;2.90;;;18.70;99.90;;;;;;4993759;28;20698;-72
2023/07/11 04:46:45;;;;;;;4.35;3.08;;;18.50;99.90;;;;;;5013500;28;20245;-72
2023/07/11 04:49:34;;;;;;;2.95;2.60;;;18.40;99.90;;;;;;5017923;28;20246;-74
2023/07/11 04:52:22;;;;;;;4.90;2.80;;;18.40;99.90;;;;;;5017819;28;20225;-71
2023/07/11 04:55:12;;;;;;;4.45;2.75;;;18.50;99.90;;;;;;5028634;28;20683;-74
2023/07/11 04:58:01;;;;;;;6.90;2.78;;;18.60;99.90;;;;;;5016684;28;20213;-72
2023/07/11 05:01:03;;;;;;;3.30;2.85;;;18.60;99.90;;;;;;5013616;28;20220;-72
2023/07/11 05:03:53;;;;;;;2.83;2.50;;;18.80;99.90;;;;;;5001052;28;20225;-73
2023/07/11 05:06:42;;;;;;;2.60;2.17;;;18.80;99.90;;;;;;5013283;28;20713;-73
2023/07/11 05:09:32;;;;;;;2.53;2.10;;;18.90;99.90;;;;;;5028461;28;20218;-74
2023/07/11 05:12:28;;;;;;;3.95;2.20;;;18.80;99.90;;;;;;5019691;28;20218;-75
2023/07/11 05:15:17;;;;;;;3.50;2.42;;;18.90;99.90;;;;;;5012535;28;20225;-74
2023/07/11 05:18:06;;;;;;;3.80;2.50;;;19.10;99.90;;;;;;5035421;28;20252;-73
2023/07/11 05:20:57;;;;;;;2.78;2.30;;;19.00;99.90;;;;;;5014870;28;20234;-73
2023/07/11 05:23:46;;;;;;;3.15;2.55;;;19.00;99.90;;;;;;5033237;28;20225;-73
2023/07/11 05:26:35;;;;;;;4.45;2.40;;;18.80;99.90;;;;;;5010639;28;20229;-73
2023/07/11 05:29:26;;;;;;;4.93;2.20;;;18.80;99.90;;;;;;5014918;28;20223;-74
2023/07/11 05:32:15;;;;;;;2.85;2.40;;;19.00;99.90;;;;;;5032686;28;20226;-73
2023/07/11 05:35:05;;;;;;;3.22;2.38;;;19.00;99.90;;;;;;5012112;28;21106;-73
2023/07/11 05:37:59;;;;;;;2.88;2.40;;;18.90;99.90;;;;;;5002191;28;20357;-71
2023/07/11 05:40:48;;;;;;;2.78;2.20;;;18.80;99.90;;;;;;5002235;28;20375;-71
2023/07/11 05:43:37;;;;;;;3.58;2.38;;;19.10;99.90;;;;;;4986535;28;20237;-73
2023/07/11 05:46:29;;;;;;;4.18;2.13;;;19.30;99.90;;;;;;5006182;28;20814;-73
2023/07/11 05:49:18;;;;;;;3.83;2.20;;;19.50;99.90;;;;;;5017666;28;20213;-70
2023/07/11 05:52:08;;;;;;;3.28;2.50;;;19.40;99.90;;;;;;5030143;28;20226;-71
2023/07/11 05:54:58;;;;;;;5.00;2.15;;;19.50;99.90;;;;;;5023614;28;20672;-72
2023/07/11 05:57:47;;;;;;;3.60;2.30;;;19.60;99.90;;;;;;5008022;28;20773;-71
2023/07/11 06:00:36;;;;;;;4.85;2.30;;;19.80;99.90;;;;;;5022933;28;20233;-71
2023/07/11 06:03:27;;;;;;;2.25;2.05;;;19.80;99.90;;;;;;5011114;28;20228;-73
2023/07/11 06:06:18;;;;;;;4.95;2.42;;;19.80;99.90;;;;;;5014538;28;20229;-73
2023/07/11 06:09:07;;;;;;;2.60;2.00;;;19.50;99.90;;;;;;5019744;28;20347;-72
2023/07/11 06:11:57;;;;;;;2.10;1.80;;;19.50;99.90;;;;;;4998945;28;20475;-72
2023/07/11 06:14:46;;;;;;;4.18;2.42;;;19.60;99.90;;;;;;5019614;28;20518;-72
2023/07/11 06:17:35;;;;;;;5.47;2.25;;;19.50;99.90;;;;;;5002216;28;20225;-72
2023/07/11 06:20:24;;;;;;;4.32;2.42;;;19.60;99.90;;;;;;4995383;28;20221;-72
2023/07/11 06:23:13;;;;;;;3.33;2.38;;;19.60;99.90;;;;;;5002530;28;20214;-76
2023/07/11 06:26:02;;;;;;;5.25;2.28;;;20.10;99.90;;;;;;5006419;28;20218;-74
2023/07/11 06:28:53;;;;;;;3.10;2.30;;;20.40;99.90;;;;;;5013873;28;20558;-70
2023/07/11 06:31:42;;;;;;;4.28;2.30;;;20.30;99.90;;;;;;5011269;28;20222;-74
2023/07/11 06:34:33;;;;;;;3.08;2.00;;;20.10;99.90;;;;;;5017056;28;20258;-74
2023/07/11 06:37:22;;;;;;;3.47;2.20;;;20.10;99.90;;;;;;5017848;28;20875;-74
2023/07/11 06:40:12;;;;;;;4.22;1.90;;;20.10;99.90;;;;;;5021555;28;20608;-74
2023/07/11 06:43:01;;;;;;;3.83;1.48;;;20.10;99.90;;;;;;5016694;28;20230;-75
2023/07/11 06:45:53;;;;;;;1.70;1.55;;;20.20;99.90;;;;;;5000996;28;20310;-74
2023/07/11 06:48:42;;;;;;;4.22;2.22;;;20.40;99.90;;;;;;5000764;28;20246;-74
2023/07/11 06:51:31;;;;;;;2.63;1.92;;;20.40;99.90;;;;;;5012619;28;20234;-74
2023/07/11 06:54:20;;;;;;;5.20;2.17;;;20.50;99.90;;;;;;5022219;28;20221;-74
2023/07/11 06:57:09;;;;;;;2.83;2.30;;;20.60;99.90;;;;;;5008316;28;20221;-74
2023/07/11 06:59:59;;;;;;;2.88;2.05;;;20.60;99.90;;;;;;5016145;28;20745;-71
2023/07/11 07:02:50;;;;;;;4.40;2.60;;;20.60;99.90;;;;;;5009812;28;20222;-74
2023/07/11 07:05:47;;;;;;;4.05;2.33;;;20.60;99.90;;;;;;5011550;28;20225;-72
2023/07/11 07:08:36;;;;;;;7.57;2.55;;;20.60;99.90;;;;;;5015758;28;20272;-74
2023/07/11 07:11:25;;;;;;;5.18;2.35;;;20.60;99.90;;;;;;5006943;28;20229;-72
2023/07/11 07:14:14;;;;;;;3.22;2.40;;;20.70;99.90;;;;;;5011795;28;20770;-73
2023/07/11 07:17:04;;;;;;;5.28;2.60;;;20.70;99.90;;;;;;5016872;28;20230;-74
2023/07/11 07:19:54;;;;;;;4.53;2.42;;;20.80;99.90;;;;;;5001041;28;20253;-73
2023/07/11 07:22:43;;;;;;;4.32;2.55;;;20.80;99.90;;;;;;5020128;28;20217;-74
2023/07/11 07:25:32;;;;;;;4.85;2.83;;;20.80;99.90;;;;;;5019113;28;20774;-74
2023/07/11 07:28:22;;;;;;;3.50;2.42;;;20.80;99.90;;;;;;5019164;28;20794;-74
2023/07/11 07:31:10;;;;;;;4.13;2.25;;;21.00;99.90;;;;;;5006531;28;20262;-70
2023/07/11 07:33:59;;;;;;;6.13;2.55;;;21.00;99.90;;;;;;5014073;28;20237;-75
2023/07/11 07:36:50;;;;;;;4.10;1.90;;;21.00;99.90;;;;;;5018466;28;20230;-74
2023/07/11 07:39:39;;;;;;;4.25;2.55;;;20.90;99.90;;;;;;5000343;28;20210;-73
2023/07/11 07:42:29;;;;;;;6.22;2.40;;;20.90;99.90;;;;;;5016593;28;20233;-74
2023/07/11 07:45:18;;;;;;;6.60;2.70;;;20.80;99.90;;;;;;5013679;28;20233;-72
2023/07/11 07:48:07;;;;;;;7.47;3.00;;;21.00;99.90;;;;;;5010980;28;20819;-74
2023/07/11 07:51:03;;;;;;;6.57;3.58;;;21.00;99.90;;;;;;5014981;28;20226;-73
2023/07/11 07:53:54;;;;;;;7.35;4.50;;;20.90;99.90;;;;;;5017338;28;20647;-74
2023/07/11 07:56:45;;;;;;;11.43;5.03;;;21.00;99.90;;;;;;5007483;28;20221;-74
2023/07/11 07:59:34;;;;;;;13.45;5.88;;;20.90;99.90;;;;;;5005000;28;20226;-74
2023/07/11 08:02:23;;;;;;;11.43;6.30;;;20.90;99.90;;;;;;5014514;28;20416;-73
2023/07/11 08:05:17;;;;;;;12.07;5.93;;;21.00;99.90;;;;;;5016654;28;20221;-74
2023/07/11 08:08:06;;;;;;;11.18;6.18;;;21.00;99.90;;;;;;5005915;28;21773;-74
2023/07/11 08:11:00;;;;;;;12.00;6.32;;;21.20;99.90;;;;;;4997062;28;20366;-71
2023/07/11 08:13:50;;;;;;;11.15;5.15;;;21.20;99.90;;;;;;4997971;28;20232;-74
2023/07/11 08:16:42;;;;;;;9.20;4.63;;;21.10;99.90;;;;;;5027470;28;20225;-75
2023/07/11 08:19:31;;;;;;;7.82;3.85;;;21.10;99.90;;;;;;5017226;28;20224;-74
2023/07/11 08:22:21;;;;;;;3.97;2.67;;;21.20;99.90;;;;;;5017694;28;20232;-76
2023/07/11 08:25:11;;;;;;;4.18;2.72;;;21.20;99.90;;;;;;5013386;28;20606;-75
2023/07/11 08:28:02;;;;;;;6.28;2.50;;;21.20;99.90;;;;;;5018030;28;20227;-75
2023/07/11 08:30:50;;;;;;;6.38;2.80;;;21.50;99.90;;;;;;5017200;28;20264;-74
2023/07/11 08:33:39;;;;;;;5.43;2.30;;;21.60;99.90;;;;;;5003514;28;20267;-76
2023/07/11 08:36:28;;;;;;;3.83;2.42;;;21.50;99.90;;;;;;5005556;28;20222;-76
2023/07/11 08:39:17;;;;;;;3.40;2.55;;;21.40;99.90;;;;;;5014697;28;20300;-76
2023/07/11 08:42:28;;;;;;;4.40;2.30;;;21.30;99.90;;;;;;5012754;28;20233;-76
2023/07/11 08:45:24;;;;;;;3.95;2.53;;;21.30;99.90;;;;;;5008854;28;20291;-75
2023/07/11 08:48:18;;;;;;;4.72;2.40;;;21.50;99.90;;;;;;5012298;28;20229;-75
2023/07/11 08:51:18;;;;;;;4.65;2.33;;;21.50;99.90;;;;;;5011765;28;20634;-75
2023/07/11 08:54:15;;;;;;;5.28;2.70;;;21.60;99.90;;;;;;5010244;28;20728;-77
2023/07/11 08:57:04;;;;;;;5.65;2.60;;;21.70;99.90;;;;;;5015265;28;20641;-76
2023/07/11 08:59:59;;;;;;;8.55;3.70;;;21.90;99.90;;;;;;5010973;28;20241;-76
2023/07/11 09:02:56;;;;;;;7.88;3.85;;;21.90;99.90;;;;;;5018346;28;20226;-75
2023/07/11 09:05:57;;;;;;;8.25;4.35;;;21.80;99.90;;;;;;5018307;28;20224;-75
2023/07/11 09:08:48;;;;;;;8.93;4.30;;;21.80;99.90;;;;;;5015076;28;20640;-75
2023/07/11 09:11:43;;;;;;;9.38;4.25;;;21.80;99.90;;;;;;5016413;28;20236;-76
2023/07/11 09:14:50;;;;;;;10.43;4.20;;;21.90;99.90;;;;;;5012718;28;20274;-75
2023/07/11 09:17:56;;;;;;;5.43;2.70;;;21.90;99.90;;;;;;5018303;28;20228;-76
2023/07/11 09:20:49;;;;;;;3.58;2.40;;;21.90;99.90;;;;;;5017632;28;20918;-76
2023/07/11 09:23:57;;;;;;;3.38;2.30;;;21.80;99.90;;;;;;5015249;28;20243;-75
2023/07/11 09:27:24;;;;;;;7.78;1.90;;;21.80;99.90;;;;;;5008979;28;20593;-75
2023/07/11 09:30:18;;;;;;;2.03;1.80;;;21.90;99.90;;;;;;4994027;28;20659;-74
2023/07/11 09:33:15;;;;;;;5.65;2.00;;;21.90;99.90;;;;;;5012443;28;20352;-72
2023/07/11 09:36:17;;;;;;;2.63;1.90;;;22.00;99.90;;;;;;5011471;28;20593;-74
2023/07/11 09:39:16;;;;;;;2.65;2.30;;;22.30;99.90;;;;;;5013337;28;20210;-70
2023/07/11 09:42:09;;;;;;;8.63;2.70;;;22.60;99.90;;;;;;5022622;28;20237;-71
2023/07/11 09:44:59;;;;;;;94.20;9.30;;;23.30;99.90;;;;;;4995613;28;20642;-72
2023/07/11 09:47:52;;;;;;;11.07;2.80;;;24.30;99.90;;;;;;5006559;28;20245;-71
2023/07/11 09:51:11;;;;;;;5.35;2.25;;;24.40;99.90;;;;;;5007353;28;20385;-73
2023/07/11 09:54:02;;;;;;;6.65;2.22;;;25.50;99.90;;;;;;5016041;28;20355;-72
2023/07/11 09:56:55;;;;;;;4.22;1.90;;;27.80;99.90;;;;;;5017742;28;20227;-73
2023/07/11 09:59:45;;;;;;;3.50;2.22;;;27.40;99.90;;;;;;5013841;28;20225;-70
2023/07/11 10:02:34;;;;;;;3.08;2.03;;;27.70;98.80;;;;;;5007566;28;20229;-76
2023/07/11 10:05:26;;;;;;;3.55;1.90;;;30.70;96.30;;;;;;5023563;28;20233;-72
2023/07/11 10:08:19;;;;;;;4.40;2.17;;;31.00;91.50;;;;;;5016604;28;20749;-70
2023/07/11 10:11:14;;;;;;;2.63;1.83;;;31.70;89.40;;;;;;5007641;28;20671;-74
2023/07/11 10:14:03;;;;;;;4.93;2.00;;;32.70;83.50;;;;;;5012044;28;20233;-74
2023/07/11 10:16:52;;;;;;;3.17;2.20;;;33.50;82.00;;;;;;5014264;28;20224;-75
2023/07/11 10:19:42;;;;;;;3.25;2.10;;;33.80;74.40;;;;;;5006660;28;20233;-74
2023/07/11 10:22:32;;;;;;;2.30;1.90;;;33.80;74.60;;;;;;5018421;28;20312;-75
2023/07/11 10:25:26;;;;;;;2.65;2.08;;;33.90;76.20;;;;;;5012718;28;20221;-74
2023/07/11 10:28:31;;;;;;;2.38;1.80;;;33.20;77.10;;;;;;5024965;28;20259;-74
2023/07/11 10:31:26;;;;;;;5.18;1.80;;;35.80;75.10;;;;;;5007107;28;20217;-72
2023/07/11 10:34:19;;;;;;;4.97;1.90;;;36.70;66.50;;;;;;5006594;28;20224;-75
2023/07/11 10:37:13;;;;;;;2.65;1.90;;;37.80;67.80;;;;;;5017944;28;20243;-74
2023/07/11 10:40:11;;;;;;;2.38;1.80;;;38.10;66.60;;;;;;5008700;28;20244;-73
2023/07/11 10:43:10;;;;;;;4.00;2.20;;;37.90;64.10;;;;;;5001656;28;20228;-74
2023/07/11 10:46:04;;;;;;;2.20;1.88;;;35.10;66.80;;;;;;5011211;28;20229;-76
2023/07/11 10:48:56;;;;;;;3.65;2.08;;;33.30;70.30;;;;;;4996416;28;20221;-74
2023/07/11 10:51:51;;;;;;;5.28;1.90;;;35.00;72.40;;;;;;5017861;28;21010;-76
2023/07/11 10:54:47;;;;;;;2.85;1.90;;;37.20;65.60;;;;;;4997043;28;20321;-79
2023/07/11 10:57:42;;;;;;;1.75;1.63;;;38.90;62.20;;;;;;4998697;28;20299;-79
2023/07/11 11:00:49;;;;;;;8.20;1.88;;;40.50;59.70;;;;;;5029475;28;20299;-78
2023/07/11 11:03:41;;;;;;;3.47;1.77;;;41.30;56.20;;;;;;5014100;28;20248;-76
2023/07/11 11:06:45;;;;;;;1.50;1.40;;;42.00;56.80;;;;;;5008934;28;20236;-77
2023/07/11 11:09:40;;;;;;;4.82;2.30;;;42.10;55.20;;;;;;5001322;28;20228;-77
2023/07/11 11:12:43;;;;;;;2.55;1.58;;;41.50;52.00;;;;;;5016581;28;20738;-76
2023/07/11 11:15:46;;;;;;;1.80;1.70;;;39.90;52.90;;;;;;5013321;28;20592;-79
2023/07/11 11:18:46;;;;;;;1.90;1.45;;;41.30;53.80;;;;;;5012164;28;20240;-76
2023/07/11 11:21:40;;;;;;;2.47;1.38;;;42.50;52.30;;;;;;5004065;28;20825;-80
2023/07/11 11:24:47;;;;;;;4.47;1.50;;;42.10;49.40;;;;;;5013055;28;20267;-76
2023/07/11 11:27:49;;;;;;;2.08;1.75;;;41.00;52.60;;;;;;5015669;28;20229;-78
2023/07/11 11:30:49;;;;;;;2.47;1.58;;;37.70;53.50;;;;;;5021240;28;20262;-76
2023/07/11 11:33:50;;;;;;;2.03;1.40;;;34.30;57.30;;;;;;5016196;28;20237;-75
2023/07/11 11:36:53;;;;;;;3.05;1.50;;;32.60;60.40;;;;;;5011726;28;20718;-76
2023/07/11 11:39:48;;;;;;;7.78;1.83;;;31.30;61.30;;;;;;5019400;28;20223;-68
2023/07/11 11:42:41;;;;;;;3.95;1.67;;;30.50;64.30;;;;;;5005442;28;20739;-72
2023/07/11 11:45:30;;;;;;;61.83;5.82;;;30.00;66.90;;;;;;5004624;28;20362;-70
2023/07/11 11:48:42;;;;;;;14.48;2.70;;;29.60;69.80;;;;;;5031584;28;20221;-70
2023/07/11 11:51:34;;;;;;;6.07;2.00;;;28.80;72.50;;;;;;5007962;28;20241;-71
2023/07/11 11:54:25;;;;;;;11.15;1.90;;;28.30;70.80;;;;;;5020884;28;20233;-71
2023/07/11 11:57:21;;;;;;;8.65;2.10;;;28.00;74.80;;;;;;5015000;28;20221;-72
2023/07/11 12:00:33;;;;;;;5.88;2.20;;;27.70;77.20;;;;;;5007211;28;20221;-71
2023/07/11 12:03:27;;;;;;;5.25;1.98;;;27.60;80.40;;;;;;5007547;28;20789;-72
2023/07/11 12:06:30;;;;;;;2.20;2.00;;;27.70;78.00;;;;;;5013328;28;20235;-71
2023/07/11 12:09:40;;;;;;;6.18;2.40;;;27.60;79.40;;;;;;5013841;28;20286;-72
2023/07/11 12:13:16;;;;;;;4.95;2.30;;;29.30;78.20;;;;;;5016407;28;20810;-72
2023/07/11 12:16:09;;;;;;;2.25;1.90;;;33.30;68.60;;;;;;5012143;28;20750;-72
2023/07/11 12:18:59;;;;;;;4.35;1.92;;;32.70;68.90;;;;;;5016346;28;20323;-72
2023/07/11 12:21:58;;;;;;;5.50;2.00;;;31.50;67.90;;;;;;5011436;28;20596;-72
2023/07/11 12:25:02;;;;;;;8.98;2.60;;;30.90;73.10;;;;;;5013214;28;20220;-72
2023/07/11 12:28:01;;;;;;;7.45;2.75;;;31.50;69.60;;;;;;5002961;28;20231;-71
2023/07/11 12:31:06;;;;;;;4.00;2.20;;;34.00;67.30;;;;;;5017536;28;20225;-72
2023/07/11 12:34:01;;;;;;;3.40;2.30;;;32.10;68.60;;;;;;5013169;28;20228;-71
2023/07/11 12:37:01;;;;;;;3.45;2.40;;;30.10;71.30;;;;;;5011167;28;20212;-72
2023/07/11 12:40:02;;;;;;;3.55;2.35;;;29.20;75.20;;;;;;4991238;28;21474;-72
2023/07/11 12:42:55;;;;;;;3.65;2.10;;;35.00;71.90;;;;;;5006272;28;20402;-73
2023/07/11 12:45:48;;;;;;;3.10;2.10;;;38.80;57.90;;;;;;5002964;28;20224;-72
2023/07/11 12:48:42;;;;;;;2.90;2.20;;;33.20;64.90;;;;;;5010425;28;20216;-73
2023/07/11 12:51:33;;;;;;;11.68;2.72;;;31.00;69.80;;;;;;5002250;28;20221;-72
2023/07/11 12:54:26;;;;;;;18.80;3.45;;;29.80;76.20;;;;;;5018181;28;20632;-69
2023/07/11 12:57:18;;;;;;;8.43;2.83;;;31.50;76.40;;;;;;5006783;28;20253;-72
2023/07/11 13:00:20;;;;;;;2.50;2.30;;;31.10;73.00;;;;;;5030817;28;20232;-65
2023/07/11 13:03:22;;;;;;;3.67;2.60;;;30.00;74.20;;;;;;5016850;28;20291;-73
2023/07/11 13:06:22;;;;;;;7.75;2.80;;;29.30;74.50;;;;;;5004171;28;20235;-74
2023/07/11 13:09:11;;;;;;;5.60;2.80;;;29.00;78.20;;;;;;4995547;28;20229;-73
2023/07/11 13:12:02;;;;;;;3.45;3.03;;;28.70;78.60;;;;;;5003709;28;20229;-71
2023/07/11 13:14:53;;;;;;;4.68;3.17;;;28.60;80.70;;;;;;5016924;28;20854;-73
2023/07/11 13:17:44;;;;;;;4.75;3.38;;;28.40;80.40;;;;;;5008122;28;20231;-73
2023/07/11 13:20:36;;;;;;;4.18;3.05;;;28.20;81.30;;;;;;5013804;28;20729;-73
2023/07/11 13:23:28;;;;;;;4.60;3.38;;;28.20;79.70;;;;;;5019503;28;20598;-73
2023/07/11 13:26:22;;;;;;;3.50;3.20;;;27.90;80.10;;;;;;5016069;28;20233;-72
2023/07/11 13:29:17;;;;;;;4.93;3.33;;;28.00;82.00;;;;;;5021090;28;20279;-73
2023/07/11 13:32:12;;;;;;;5.45;3.67;;;28.00;83.70;;;;;;5019163;28;20772;-73
2023/07/11 13:35:13;;;;;;;4.13;3.30;;;27.80;81.00;;;;;;5010877;28;20216;-73
2023/07/11 13:38:13;;;;;;;4.22;3.63;;;27.80;81.80;;;;;;5014928;28;20727;-73
2023/07/11 13:41:03;;;;;;;5.22;3.38;;;28.00;81.10;;;;;;4996214;28;20225;-73
2023/07/11 13:43:56;;;;;;;5.60;3.50;;;27.90;80.50;;;;;;5034117;28;21078;-73
2023/07/11 13:46:47;;;;;;;6.35;3.38;;;27.70;82.10;;;;;;5003271;28;20236;-73
2023/07/11 13:49:39;;;;;;;4.13;3.70;;;27.60;83.20;;;;;;5016443;28;20923;-73
2023/07/11 13:52:33;;;;;;;4.32;3.28;;;27.50;81.70;;;;;;5012482;28;20224;-74
2023/07/11 13:55:26;;;;;;;6.45;3.78;;;27.50;82.80;;;;;;5002124;28;20675;-74
2023/07/11 13:58:16;;;;;;;3.53;3.22;;;27.50;83.10;;;;;;5016928;28;20222;-72
2023/07/11 14:01:12;;;;;;;4.40;3.20;;;27.40;85.60;;;;;;5014489;28;20226;-73
2023/07/11 14:04:07;;;;;;;7.10;3.50;;;27.30;83.70;;;;;;5008525;28;20241;-74
2023/07/11 14:06:56;;;;;;;3.78;3.47;;;27.20;83.40;;;;;;5025213;28;20766;-73
2023/07/11 14:09:44;;;;;;;3.92;3.45;;;27.10;82.50;;;;;;5030697;28;20305;-73
2023/07/11 14:12:34;;;;;;;5.20;3.00;;;27.00;83.40;;;;;;5022543;28;20230;-73
2023/07/11 14:15:25;;;;;;;3.97;3.58;;;26.70;83.50;;;;;;5018371;28;20246;-74
2023/07/11 14:18:15;;;;;;;4.25;3.78;;;27.00;84.00;;;;;;5019403;28;20237;-73
2023/07/11 14:21:05;;;;;;;5.93;3.38;;;27.00;83.30;;;;;;5014623;28;20244;-73
2023/07/11 14:23:54;;;;;;;5.40;3.35;;;27.10;85.10;;;;;;5011134;28;20227;-73
2023/07/11 14:26:44;;;;;;;4.40;3.95;;;26.80;83.70;;;;;;5016231;28;20225;-72
2023/07/11 14:29:33;;;;;;;8.30;3.33;;;26.80;84.60;;;;;;5025653;28;20233;-73
2023/07/11 14:32:23;;;;;;;4.95;3.42;;;26.70;83.10;;;;;;5019052;28;21019;-75
2023/07/11 14:35:16;;;;;;;4.13;3.10;;;26.80;83.60;;;;;;5008124;28;20688;-73
2023/07/11 14:38:12;;;;;;;4.15;3.20;;;26.80;82.80;;;;;;5012171;28;20700;-73
2023/07/11 14:41:01;;;;;;;5.38;3.10;;;26.80;86.50;;;;;;5011666;28;20237;-74
2023/07/11 14:43:50;;;;;;;6.25;3.42;;;26.70;87.00;;;;;;4997375;28;20226;-73
2023/07/11 14:46:40;;;;;;;3.60;3.30;;;26.50;84.40;;;;;;4993261;28;20736;-74
2023/07/11 14:49:29;;;;;;;3.50;3.20;;;26.30;83.80;;;;;;4994309;28;20238;-73
2023/07/11 14:52:28;;;;;;;3.35;3.00;;;26.20;85.30;;;;;;5026586;28;20602;-75
2023/07/11 14:55:22;;;;;;;3.80;3.40;;;25.90;85.80;;;;;;5002529;28;20245;-71